Time;durP1;ratioP1;P1;durP2;ratioP2;P2;SDS_P1;SDS_P2;PMS_P1;PMS_P2;Temp;Humidity;BMP_temperature;BMP_pressure;BME280_temperature;BME280_humidity;BME280_pressure;Samples;Min_cycle;Max_cycle;Signal;HPM_P1;HPM_P2
2023/11/16 00:02:21;;;;;;;5.32;3.42;;;;;;;;;;6340415;28;20044;-68
2023/11/16 00:05:24;;;;;;;3.65;2.15;;;;;;;;;;6341411;28;20176;-67
2023/11/16 00:08:26;;;;;;;3.72;2.70;;;;;;;;;;6328287;28;20144;-68
2023/11/16 00:11:29;;;;;;;3.38;2.28;;;;;;;;;;6342092;28;20525;-67
2023/11/16 00:14:32;;;;;;;3.80;2.42;;;;;;;;;;6341884;28;20084;-67
2023/11/16 00:17:37;;;;;;;3.80;2.35;;;;;;;;;;6341205;28;20529;-68
2023/11/16 00:20:39;;;;;;;3.65;2.55;;;;;;;;;;6343497;27;20124;-68
2023/11/16 00:23:41;;;;;;;3.47;2.15;;;;;;;;;;6343117;28;20067;-68
2023/11/16 00:26:44;;;;;;;4.22;3.80;;;;;;;;;;6343131;28;20063;-68
2023/11/16 00:29:46;;;;;;;3.30;2.17;;;;;;;;;;6349982;28;20047;-69
2023/11/16 00:32:48;;;;;;;4.95;4.45;;;;;;;;;;6350937;28;20437;-68
2023/11/16 00:35:51;;;;;;;2.83;1.63;;;;;;;;;;6341027;28;20047;-68
2023/11/16 00:38:53;;;;;;;3.20;1.92;;;;;;;;;;6341169;28;20058;-68
2023/11/16 00:41:55;;;;;;;3.75;3.10;;;;;;;;;;6339863;28;20052;-68
2023/11/16 00:44:57;;;;;;;3.20;2.40;;;;;;;;;;6332691;28;20055;-68
2023/11/16 00:47:59;;;;;;;2.90;1.85;;;;;;;;;;6332237;28;20136;-68
2023/11/16 00:51:02;;;;;;;3.00;2.08;;;;;;;;;;6323340;28;20051;-67
2023/11/16 00:54:04;;;;;;;3.55;2.15;;;;;;;;;;6340798;28;20043;-68
2023/11/16 00:57:06;;;;;;;2.95;2.17;;;;;;;;;;6338399;28;20039;-68
2023/11/16 01:00:10;;;;;;;4.72;1.77;;;;;;;;;;6337925;28;20081;-68
2023/11/16 01:03:13;;;;;;;3.60;2.42;;;;;;;;;;6339217;28;20058;-68
2023/11/16 01:06:16;;;;;;;4.40;2.53;;;;;;;;;;6340066;28;20122;-69
2023/11/16 01:09:19;;;;;;;2.90;1.73;;;;;;;;;;6321366;28;20295;-68
2023/11/16 01:12:23;;;;;;;4.47;4.07;;;;;;;;;;6339416;28;20419;-69
2023/11/16 01:15:25;;;;;;;3.15;2.60;;;;;;;;;;6338921;28;20047;-68
2023/11/16 01:18:30;;;;;;;6.30;5.82;;;;;;;;;;6339617;28;20513;-69
2023/11/16 01:21:40;;;;;;;5.78;5.32;;;;;;;;;;6339681;28;20438;-68
2023/11/16 01:24:46;;;;;;;3.15;2.45;;;;;;;;;;6331406;28;20599;-68
2023/11/16 01:27:57;;;;;;;3.67;2.47;;;;;;;;;;6328022;28;20051;-68
2023/11/16 01:31:03;;;;;;;2.97;2.00;;;;;;;;;;6339422;28;20059;-68
2023/11/16 01:34:10;;;;;;;4.28;3.22;;;;;;;;;;6323191;28;20043;-69
2023/11/16 01:37:13;;;;;;;3.47;3.05;;;;;;;;;;6320296;28;20055;-68
2023/11/16 01:40:15;;;;;;;3.17;2.13;;;;;;;;;;6339455;28;20052;-68
2023/11/16 01:43:17;;;;;;;4.78;3.58;;;;;;;;;;6338852;28;20043;-69
2023/11/16 01:46:20;;;;;;;4.57;3.47;;;;;;;;;;6340201;28;20051;-69
2023/11/16 01:49:23;;;;;;;5.72;2.65;;;;;;;;;;6326492;28;20054;-68
2023/11/16 01:52:27;;;;;;;4.05;3.17;;;;;;;;;;6324988;28;20066;-68
2023/11/16 01:55:32;;;;;;;3.30;2.35;;;;;;;;;;6334571;28;20566;-68
2023/11/16 01:58:35;;;;;;;5.28;4.32;;;;;;;;;;6326540;28;21393;-68
2023/11/16 02:01:37;;;;;;;4.32;2.72;;;;;;;;;;6320798;28;20055;-68
2023/11/16 02:04:40;;;;;;;6.68;6.07;;;;;;;;;;6308691;28;20434;-67
2023/11/16 02:07:42;;;;;;;4.38;2.72;;;;;;;;;;6336605;28;20074;-68
2023/11/16 02:10:44;;;;;;;3.45;2.92;;;;;;;;;;6339315;28;20051;-68
2023/11/16 02:13:49;;;;;;;3.80;3.08;;;;;;;;;;6323814;28;20048;-69
2023/11/16 02:16:52;;;;;;;4.65;4.05;;;;;;;;;;6307570;28;20044;-68
2023/11/16 02:19:54;;;;;;;5.50;3.30;;;;;;;;;;6308759;28;20035;-68
2023/11/16 02:23:04;;;;;;;4.65;3.67;;;;;;;;;;6311160;28;20051;-68
2023/11/16 02:26:07;;;;;;;7.53;4.47;;;;;;;;;;6339004;28;20071;-69
2023/11/16 02:29:10;;;;;;;6.03;5.18;;;;;;;;;;6325096;28;20422;-68
2023/11/16 02:32:12;;;;;;;5.22;3.53;;;;;;;;;;6313566;28;20055;-69
2023/11/16 02:35:14;;;;;;;4.93;2.65;;;;;;;;;;6324103;28;20039;-68
2023/11/16 02:38:17;;;;;;;5.75;3.28;;;;;;;;;;6327768;28;20044;-68
2023/11/16 02:41:19;;;;;;;5.65;3.75;;;;;;;;;;6317857;28;20485;-68
2023/11/16 02:44:21;;;;;;;5.43;3.72;;;;;;;;;;6337915;28;20059;-68
2023/11/16 02:47:24;;;;;;;6.28;4.03;;;;;;;;;;6338084;28;20051;-68
2023/11/16 02:50:26;;;;;;;5.88;4.32;;;;;;;;;;6321661;28;20048;-68
2023/11/16 02:53:29;;;;;;;5.90;3.95;;;;;;;;;;6337722;28;20073;-68
2023/11/16 02:56:31;;;;;;;5.57;3.78;;;;;;;;;;6338778;28;20082;-68
2023/11/16 02:59:34;;;;;;;4.65;3.50;;;;;;;;;;6350463;27;20036;-68
2023/11/16 03:02:36;;;;;;;6.10;3.83;;;;;;;;;;6324408;28;20039;-68
2023/11/16 03:05:40;;;;;;;5.47;4.32;;;;;;;;;;6338571;28;20059;-69
2023/11/16 03:08:43;;;;;;;7.85;5.07;;;;;;;;;;6330995;28;20052;-67
2023/11/16 03:11:45;;;;;;;9.13;4.50;;;;;;;;;;6340613;28;20824;-69
2023/11/16 03:14:50;;;;;;;5.88;3.85;;;;;;;;;;6339406;28;20044;-67
2023/11/16 03:17:52;;;;;;;5.68;4.18;;;;;;;;;;6337716;28;20055;-68
2023/11/16 03:20:54;;;;;;;7.05;5.22;;;;;;;;;;6334092;28;20067;-68
2023/11/16 03:23:56;;;;;;;6.78;4.47;;;;;;;;;;6348457;28;20042;-68
2023/11/16 03:26:59;;;;;;;5.95;4.55;;;;;;;;;;6339248;28;20054;-68
2023/11/16 03:30:03;;;;;;;6.15;4.18;;;;;;;;;;6343479;28;20051;-68
2023/11/16 03:33:08;;;;;;;7.40;4.57;;;;;;;;;;6336574;28;20052;-67
2023/11/16 03:36:11;;;;;;;7.40;5.13;;;;;;;;;;6328094;28;20046;-68
2023/11/16 03:39:17;;;;;;;5.32;4.15;;;;;;;;;;6329688;28;20047;-68
2023/11/16 03:42:20;;;;;;;9.35;4.88;;;;;;;;;;6342067;28;20036;-67
2023/11/16 03:45:22;;;;;;;5.30;3.60;;;;;;;;;;6343374;28;20047;-68
2023/11/16 03:48:24;;;;;;;4.57;3.50;;;;;;;;;;6333985;27;20051;-69
2023/11/16 03:51:29;;;;;;;5.10;3.90;;;;;;;;;;6346481;27;20047;-68
2023/11/16 03:54:32;;;;;;;5.35;4.03;;;;;;;;;;6325369;28;20051;-68
2023/11/16 03:57:35;;;;;;;6.68;4.70;;;;;;;;;;6340962;28;20047;-68
2023/11/16 04:00:37;;;;;;;6.93;3.92;;;;;;;;;;6317801;28;20040;-69
2023/11/16 04:03:39;;;;;;;7.65;5.13;;;;;;;;;;6326189;28;20794;-68
2023/11/16 04:06:41;;;;;;;6.22;4.35;;;;;;;;;;6311752;28;20047;-69
2023/11/16 04:09:43;;;;;;;10.00;9.10;;;;;;;;;;6331044;28;20513;-69
2023/11/16 04:12:45;;;;;;;7.70;5.05;;;;;;;;;;6336124;27;20651;-66
2023/11/16 04:15:47;;;;;;;8.18;5.30;;;;;;;;;;6337727;28;20067;-68
2023/11/16 04:18:52;;;;;;;6.93;5.28;;;;;;;;;;6340244;28;20052;-68
2023/11/16 04:21:56;;;;;;;8.38;5.18;;;;;;;;;;6295931;28;20073;-67
2023/11/16 04:24:59;;;;;;;10.90;7.80;;;;;;;;;;6334307;28;20044;-68
2023/11/16 04:28:04;;;;;;;7.80;5.72;;;;;;;;;;6333859;28;20138;-69
2023/11/16 04:31:09;;;;;;;27.63;20.75;;;;;;;;;;6317610;28;20131;-69
2023/11/16 04:34:12;;;;;;;12.98;10.95;;;;;;;;;;6335169;28;20197;-69
2023/11/16 04:37:16;;;;;;;7.57;5.53;;;;;;;;;;6333618;28;20044;-68
2023/11/16 04:40:19;;;;;;;9.40;6.68;;;;;;;;;;6338136;28;20047;-68
2023/11/16 04:43:22;;;;;;;9.10;4.72;;;;;;;;;;6338671;28;20044;-68
2023/11/16 04:46:27;;;;;;;6.88;5.18;;;;;;;;;;6328630;28;20046;-69
2023/11/16 04:49:29;;;;;;;7.38;5.65;;;;;;;;;;6316159;28;20043;-69
2023/11/16 04:52:33;;;;;;;8.20;5.28;;;;;;;;;;6335405;27;20055;-67
2023/11/16 04:55:35;;;;;;;12.18;6.43;;;;;;;;;;6335879;28;20636;-69
2023/11/16 04:58:38;;;;;;;10.52;6.70;;;;;;;;;;6335409;28;20108;-69
2023/11/16 05:01:40;;;;;;;9.52;6.70;;;;;;;;;;6337950;28;20047;-68
2023/11/16 05:04:44;;;;;;;8.93;5.63;;;;;;;;;;6340019;27;20051;-69
2023/11/16 05:07:46;;;;;;;12.23;7.47;;;;;;;;;;6338830;28;20044;-69
2023/11/16 05:10:48;;;;;;;11.65;6.75;;;;;;;;;;6338135;28;20055;-69
2023/11/16 05:13:50;;;;;;;11.35;8.15;;;;;;;;;;6337222;28;20051;-68
2023/11/16 05:16:52;;;;;;;8.00;6.03;;;;;;;;;;6339298;28;20039;-69
2023/11/16 05:19:55;;;;;;;10.15;7.60;;;;;;;;;;6342942;27;20071;-69
2023/11/16 05:22:57;;;;;;;9.57;5.32;;;;;;;;;;6334714;28;20093;-70
2023/11/16 05:25:59;;;;;;;9.57;6.43;;;;;;;;;;6326445;28;20046;-69
2023/11/16 05:29:01;;;;;;;9.40;8.52;;;;;;;;;;6333537;27;20450;-69
2023/11/16 05:32:04;;;;;;;7.80;5.25;;;;;;;;;;6335268;28;20051;-69
2023/11/16 05:35:08;;;;;;;8.45;5.68;;;;;;;;;;6335239;27;20044;-68
2023/11/16 05:38:10;;;;;;;7.82;5.85;;;;;;;;;;6328946;28;20044;-68
2023/11/16 05:41:13;;;;;;;7.18;5.68;;;;;;;;;;6329070;27;20056;-68
2023/11/16 05:44:21;;;;;;;6.45;5.13;;;;;;;;;;6331364;27;20035;-68
2023/11/16 05:47:24;;;;;;;6.82;4.63;;;;;;;;;;6330859;28;20040;-67
2023/11/16 05:50:26;;;;;;;7.32;6.05;;;;;;;;;;6318460;28;20071;-68
2023/11/16 05:53:28;;;;;;;7.35;5.47;;;;;;;;;;6324163;28;20187;-67
2023/11/16 05:56:29;;;;;;;9.07;5.32;;;;;;;;;;6326676;28;20036;-68
2023/11/16 05:59:31;;;;;;;9.30;7.65;;;;;;;;;;6333506;28;20101;-70
2023/11/16 06:02:34;;;;;;;13.38;11.88;;;;;;;;;;6309766;28;20723;-70
2023/11/16 06:05:37;;;;;;;7.55;6.03;;;;;;;;;;6326688;28;20051;-70
2023/11/16 06:08:40;;;;;;;9.63;7.88;;;;;;;;;;6332284;28;20181;-69
2023/11/16 06:11:42;;;;;;;11.15;9.18;;;;;;;;;;6338133;28;20720;-69
2023/11/16 06:14:55;;;;;;;9.93;7.45;;;;;;;;;;6334690;28;20051;-69
2023/11/16 06:18:02;;;;;;;8.52;4.72;;;;;;;;;;6334618;28;20028;-68
2023/11/16 06:21:05;;;;;;;7.85;5.10;;;;;;;;;;6333336;28;20366;-69
2023/11/16 06:24:09;;;;;;;12.75;11.45;;;;;;;;;;6329519;28;20716;-67
2023/11/16 06:27:11;;;;;;;8.57;5.30;;;;;;;;;;6332123;28;20075;-68
2023/11/16 06:30:14;;;;;;;7.53;6.30;;;;;;;;;;6331887;28;20700;-67
2023/11/16 06:33:16;;;;;;;8.95;5.68;;;;;;;;;;6332475;28;20052;-68
2023/11/16 06:36:21;;;;;;;7.30;4.80;;;;;;;;;;6332222;28;20048;-68
2023/11/16 06:39:24;;;;;;;;;;;;;;;;;;6294481;28;20546;-69
2023/11/16 06:42:26;;;;;;;5.82;4.25;;;;;;;;;;6333554;28;20505;-68
2023/11/16 06:45:29;;;;;;;7.55;4.63;;;;;;;;;;6333085;28;20056;-68
2023/11/16 06:48:31;;;;;;;6.70;4.07;;;;;;;;;;6333352;28;20074;-68
2023/11/16 06:51:35;;;;;;;6.68;4.13;;;;;;;;;;6333255;28;20051;-68
2023/11/16 06:54:39;;;;;;;9.25;5.68;;;;;;;;;;6334532;28;20095;-68
2023/11/16 06:57:41;;;;;;;6.80;4.90;;;;;;;;;;6338970;28;20189;-68
2023/11/16 07:00:44;;;;;;;7.93;5.22;;;;;;;;;;6321171;28;20047;-68
2023/11/16 07:03:46;;;;;;;7.38;4.40;;;;;;;;;;6338654;28;20071;-67
2023/11/16 07:06:49;;;;;;;9.75;4.63;;;;;;;;;;6330342;28;20046;-68
2023/11/16 07:09:51;;;;;;;8.70;5.78;;;;;;;;;;6338698;28;20553;-69
2023/11/16 07:12:53;;;;;;;12.55;4.15;;;;;;;;;;6339000;28;20122;-69
2023/11/16 07:15:57;;;;;;;6.72;4.03;;;;;;;;;;6323353;28;20047;-67
2023/11/16 07:18:59;;;;;;;7.63;5.30;;;;;;;;;;6339226;28;20050;-68
2023/11/16 07:22:02;;;;;;;5.38;3.70;;;;;;;;;;6320830;28;20040;-68
2023/11/16 07:25:07;;;;;;;7.40;3.90;;;;;;;;;;6338674;28;20063;-68
2023/11/16 07:28:10;;;;;;;8.27;5.30;;;;;;;;;;6320349;28;20040;-68
2023/11/16 07:31:16;;;;;;;5.38;3.97;;;;;;;;;;6339310;28;20082;-69
2023/11/16 07:34:18;;;;;;;5.68;4.35;;;;;;;;;;6339453;28;20061;-68
2023/11/16 07:37:20;;;;;;;8.02;3.55;;;;;;;;;;6338258;28;20051;-68
2023/11/16 07:40:23;;;;;;;5.93;3.80;;;;;;;;;;6339063;28;20051;-68
2023/11/16 07:43:26;;;;;;;4.93;3.03;;;;;;;;;;6338673;28;20051;-69
2023/11/16 07:46:28;;;;;;;4.78;3.05;;;;;;;;;;6338882;28;20801;-69
2023/11/16 07:49:33;;;;;;;9.75;4.80;;;;;;;;;;6322961;28;20043;-69
2023/11/16 07:52:43;;;;;;;6.35;2.95;;;;;;;;;;6319553;28;20822;-68
2023/11/16 07:55:48;;;;;;;3.88;2.35;;;;;;;;;;6317381;28;20055;-69
2023/11/16 07:58:52;;;;;;;4.07;2.72;;;;;;;;;;6327526;28;20036;-69
2023/11/16 08:02:00;;;;;;;3.78;3.05;;;;;;;;;;6320923;28;20419;-68
2023/11/16 08:05:05;;;;;;;3.67;2.05;;;;;;;;;;6363493;28;20044;-67
2023/11/16 08:08:11;;;;;;;3.80;2.08;;;;;;;;;;6334194;28;20044;-69
2023/11/16 08:11:14;;;;;;;4.82;2.80;;;;;;;;;;6311093;28;20043;-69
2023/11/16 08:14:16;;;;;;;3.72;1.95;;;;;;;;;;6329198;28;20260;-69
2023/11/16 08:17:19;;;;;;;6.47;5.82;;;;;;;;;;6325002;28;20149;-70
2023/11/16 08:20:24;;;;;;;4.32;2.30;;;;;;;;;;6325829;28;20140;-68
2023/11/16 08:23:29;;;;;;;5.70;2.13;;;;;;;;;;6308922;28;20043;-69
2023/11/16 08:26:46;;;;;;;2.80;1.88;;;;;;;;;;6321786;28;20043;-68
2023/11/16 08:29:49;;;;;;;2.78;1.70;;;;;;;;;;6303918;28;20044;-68
2023/11/16 08:32:51;;;;;;;2.28;1.55;;;;;;;;;;6304095;28;20052;-68
2023/11/16 08:35:53;;;;;;;8.63;3.10;;;;;;;;;;6328720;28;20112;-67
2023/11/16 08:38:55;;;;;;;4.70;1.98;;;;;;;;;;6314963;28;20059;-68
2023/11/16 08:41:58;;;;;;;3.53;2.75;;;;;;;;;;6324960;27;20493;-68
2023/11/16 08:45:01;;;;;;;6.00;2.92;;;;;;;;;;6326901;28;20048;-68
2023/11/16 08:48:04;;;;;;;2.63;1.30;;;;;;;;;;6320600;27;20721;-68
2023/11/16 08:51:06;;;;;;;2.70;1.55;;;;;;;;;;6306831;28;20059;-68
2023/11/16 08:54:11;;;;;;;3.67;1.83;;;;;;;;;;6321788;28;20044;-67
2023/11/16 08:57:14;;;;;;;5.45;1.50;;;;;;;;;;6325052;28;20059;-68
2023/11/16 09:00:37;;;;;;;3.72;2.35;;;;;;;;;;6326240;28;20052;-66
2023/11/16 09:03:45;;;;;;;7.30;3.67;;;;;;;;;;6324288;28;20196;-66
2023/11/16 09:06:50;;;;;;;3.42;1.23;;;;;;;;;;6329146;28;20047;-67
2023/11/16 09:09:52;;;;;;;4.45;4.05;;;;;;;;;;6345371;27;20835;-66
2023/11/16 09:12:55;;;;;;;4.30;1.65;;;;;;;;;;6314758;28;20698;-67
2023/11/16 09:15:57;;;;;;;5.03;1.58;;;;;;;;;;6324733;28;20055;-67
2023/11/16 09:18:59;;;;;;;2.17;0.98;;;;;;;;;;6333557;28;20811;-67
2023/11/16 09:22:03;;;;;;;1.70;0.90;;;;;;;;;;6334503;28;20055;-67
2023/11/16 09:25:15;;;;;;;2.78;1.10;;;;;;;;;;6334548;27;20044;-67
2023/11/16 09:28:17;;;;;;;1.95;1.23;;;;;;;;;;6322808;28;20051;-67
2023/11/16 09:31:21;;;;;;;6.47;6.03;;;;;;;;;;6325975;28;20427;-67
2023/11/16 09:34:23;;;;;;;3.67;1.40;;;;;;;;;;6325865;28;20048;-67
2023/11/16 09:37:28;;;;;;;1.90;1.27;;;;;;;;;;6321183;28;20166;-67
2023/11/16 09:40:31;;;;;;;2.28;1.35;;;;;;;;;;6323821;28;20079;-68
2023/11/16 09:43:37;;;;;;;8.10;1.35;;;;;;;;;;6330230;28;20203;-67
2023/11/16 09:46:40;;;;;;;2.97;1.23;;;;;;;;;;6311174;28;20039;-67
2023/11/16 09:49:42;;;;;;;2.80;0.88;;;;;;;;;;6311533;28;20135;-67
2023/11/16 09:52:44;;;;;;;3.00;1.95;;;;;;;;;;6330346;28;20434;-67
2023/11/16 09:55:54;;;;;;;2.55;1.50;;;;;;;;;;6335466;28;20545;-67
2023/11/16 09:59:06;;;;;;;3.40;1.15;;;;;;;;;;6317939;28;20825;-67
2023/11/16 10:02:12;;;;;;;;;;;;;;;;;;6335831;28;20150;-67
2023/11/16 10:05:26;;;;;;;2.63;1.45;;;;;;;;;;6335669;28;20353;-66
2023/11/16 10:08:28;;;;;;;1.98;1.35;;;;;;;;;;6331587;28;20044;-66
2023/11/16 10:11:31;;;;;;;4.55;1.42;;;;;;;;;;6335223;28;20056;-67
2023/11/16 10:14:40;;;;;;;2.08;1.13;;;;;;;;;;6326840;28;20050;-67
2023/11/16 10:17:42;;;;;;;2.17;1.23;;;;;;;;;;6325053;28;20088;-68
2023/11/16 10:20:44;;;;;;;3.20;1.20;;;;;;;;;;6324184;28;20040;-68
2023/11/16 10:23:49;;;;;;;2.85;1.48;;;;;;;;;;6319677;28;20066;-67
2023/11/16 10:26:52;;;;;;;;;;;;;;;;;;6303639;28;20451;-67
2023/11/16 10:29:56;;;;;;;2.55;1.42;;;;;;;;;;6324287;28;19931;-68
2023/11/16 10:32:59;;;;;;;2.63;1.40;;;;;;;;;;6333314;28;20039;-68
2023/11/16 10:36:01;;;;;;;3.95;3.65;;;;;;;;;;6334033;28;20099;-68
2023/11/16 10:39:11;;;;;;;1.85;1.48;;;;;;;;;;6331885;28;20039;-68
2023/11/16 10:42:14;;;;;;;2.90;1.58;;;;;;;;;;6333562;27;20054;-68
2023/11/16 10:45:16;;;;;;;7.45;1.35;;;;;;;;;;6312650;28;20062;-68
2023/11/16 10:48:19;;;;;;;2.03;1.27;;;;;;;;;;6332326;28;20044;-67
2023/11/16 10:51:24;;;;;;;1.80;1.35;;;;;;;;;;6311750;28;20047;-68
2023/11/16 10:54:27;;;;;;;2.45;1.63;;;;;;;;;;6332392;28;20118;-67
2023/11/16 10:57:31;;;;;;;1.95;1.10;;;;;;;;;;6312778;28;20048;-69
2023/11/16 11:00:35;;;;;;;4.47;1.10;;;;;;;;;;6315514;28;20185;-67
2023/11/16 11:03:42;;;;;;;2.85;2.10;;;;;;;;;;6321138;28;20069;-67
2023/11/16 11:06:49;;;;;;;2.85;1.00;;;;;;;;;;6348629;28;20073;-67
2023/11/16 11:09:52;;;;;;;1.90;1.00;;;;;;;;;;6330712;28;20048;-68
2023/11/16 11:13:00;;;;;;;2.72;1.40;;;;;;;;;;6330197;28;20832;-68
2023/11/16 11:16:06;;;;;;;1.65;0.90;;;;;;;;;;6324460;28;20028;-69
2023/11/16 11:19:09;;;;;;;2.20;1.10;;;;;;;;;;6331867;28;20052;-68
2023/11/16 11:22:15;;;;;;;1.88;0.90;;;;;;;;;;6330001;28;20070;-68
2023/11/16 11:25:25;;;;;;;3.63;1.55;;;;;;;;;;6330333;28;20055;-68
2023/11/16 11:28:27;;;;;;;2.03;1.67;;;;;;;;;;6320103;28;20047;-69
2023/11/16 11:32:03;;;;;;;1.38;0.98;;;;;;;;;;6325974;28;20040;-67
2023/11/16 11:35:11;;;;;;;2.20;0.90;;;;;;;;;;6315594;28;20040;-67
2023/11/16 11:38:33;;;;;;;1.73;0.90;;;;;;;;;;6325926;28;20446;-67
2023/11/16 11:41:37;;;;;;;2.00;0.80;;;;;;;;;;6325009;28;20043;-68
2023/11/16 11:44:53;;;;;;;2.03;1.23;;;;;;;;;;6328067;27;20134;-69
2023/11/16 11:47:56;;;;;;;2.20;1.00;;;;;;;;;;6325078;28;20181;-69
2023/11/16 11:51:04;;;;;;;1.75;1.00;;;;;;;;;;6316846;28;20250;-68
2023/11/16 11:54:09;;;;;;;2.30;1.05;;;;;;;;;;6300834;28;20055;-69
2023/11/16 11:57:12;;;;;;;1.50;0.95;;;;;;;;;;6331894;28;20552;-69
2023/11/16 12:00:18;;;;;;;1.88;0.70;;;;;;;;;;6337482;28;20078;-68
2023/11/16 12:03:22;;;;;;;2.08;0.93;;;;;;;;;;6325156;28;20089;-68
2023/11/16 12:06:30;;;;;;;2.10;1.98;;;;;;;;;;6338539;28;20067;-68
2023/11/16 12:09:32;;;;;;;1.63;1.02;;;;;;;;;;6343692;28;20044;-67
2023/11/16 12:12:38;;;;;;;3.42;1.20;;;;;;;;;;6338614;28;20047;-66
2023/11/16 12:15:41;;;;;;;2.20;1.40;;;;;;;;;;6348487;28;20040;-66
2023/11/16 12:18:46;;;;;;;3.40;1.02;;;;;;;;;;6356167;28;20109;-67
2023/11/16 12:21:50;;;;;;;4.30;3.47;;;;;;;;;;6338401;28;20632;-66
2023/11/16 12:24:52;;;;;;;3.17;1.20;;;;;;;;;;6318972;28;20055;-66
2023/11/16 12:27:57;;;;;;;2.60;1.40;;;;;;;;;;6338222;28;20043;-66
2023/11/16 12:30:59;;;;;;;5.22;1.55;;;;;;;;;;6337399;28;20626;-67
2023/11/16 12:34:06;;;;;;;3.00;1.20;;;;;;;;;;6337233;28;20039;-67
2023/11/16 12:37:08;;;;;;;1.88;1.23;;;;;;;;;;6338332;28;20115;-67
2023/11/16 12:40:17;;;;;;;2.33;1.10;;;;;;;;;;6337473;28;20036;-69
2023/11/16 12:43:20;;;;;;;2.13;1.10;;;;;;;;;;6333455;28;20130;-67
2023/11/16 12:46:23;;;;;;;3.80;1.25;;;;;;;;;;6338121;28;20040;-69
2023/11/16 12:49:25;;;;;;;2.33;1.98;;;;;;;;;;6337090;28;20051;-68
2023/11/16 12:52:27;;;;;;;3.25;1.25;;;;;;;;;;6324770;28;20043;-67
2023/11/16 12:55:30;;;;;;;2.60;1.35;;;;;;;;;;6336774;28;20044;-68
2023/11/16 12:58:33;;;;;;;2.85;1.15;;;;;;;;;;6337840;28;20043;-67
2023/11/16 13:01:35;;;;;;;3.00;1.17;;;;;;;;;;6337766;28;20179;-67
2023/11/16 13:04:38;;;;;;;2.47;0.80;;;;;;;;;;6337251;28;20040;-68
2023/11/16 13:07:41;;;;;;;2.95;1.17;;;;;;;;;;6337415;28;20169;-67
2023/11/16 13:10:43;;;;;;;2.45;1.10;;;;;;;;;;6331732;28;20074;-68
2023/11/16 13:13:45;;;;;;;2.42;1.15;;;;;;;;;;6336730;28;20052;-67
2023/11/16 13:16:49;;;;;;;2.10;1.02;;;;;;;;;;6336274;28;20655;-67
2023/11/16 13:19:55;;;;;;;1.70;1.25;;;;;;;;;;6334747;28;20050;-68
2023/11/16 13:22:57;;;;;;;1.65;1.00;;;;;;;;;;6329203;28;20128;-67
2023/11/16 13:25:59;;;;;;;5.32;2.67;;;;;;;;;;6334685;28;20050;-67
2023/11/16 13:29:02;;;;;;;6.82;4.15;;;;;;;;;;6336660;28;20484;-66
2023/11/16 13:32:04;;;;;;;8.02;6.55;;;;;;;;;;6337007;28;20035;-67
2023/11/16 13:35:08;;;;;;;4.97;3.53;;;;;;;;;;6335830;28;20138;-67
2023/11/16 13:38:14;;;;;;;2.80;2.45;;;;;;;;;;6335006;28;20052;-67
2023/11/16 13:41:16;;;;;;;5.85;1.55;;;;;;;;;;6330524;28;20043;-67
2023/11/16 13:44:18;;;;;;;4.40;1.73;;;;;;;;;;6333712;28;20613;-67
2023/11/16 13:47:20;;;;;;;1.88;1.10;;;;;;;;;;6329379;28;20142;-67
2023/11/16 13:50:24;;;;;;;3.30;1.08;;;;;;;;;;6335065;28;20044;-68
2023/11/16 13:53:28;;;;;;;2.97;1.60;;;;;;;;;;6334949;28;20043;-68
2023/11/16 13:56:33;;;;;;;2.20;1.83;;;;;;;;;;6334246;28;20055;-68
2023/11/16 13:59:35;;;;;;;1.92;1.20;;;;;;;;;;6332561;28;20047;-67
2023/11/16 14:02:41;;;;;;;2.92;1.65;;;;;;;;;;6334921;28;20058;-67
2023/11/16 14:05:43;;;;;;;5.07;2.42;;;;;;;;;;6311924;28;20035;-68
2023/11/16 14:08:45;;;;;;;8.00;6.28;;;;;;;;;;6330403;28;20094;-69
2023/11/16 14:11:47;;;;;;;4.53;2.35;;;;;;;;;;6322594;28;20046;-69
2023/11/16 14:14:49;;;;;;;4.32;2.92;;;;;;;;;;6326839;28;20055;-69
2023/11/16 14:17:51;;;;;;;4.60;2.60;;;;;;;;;;6331358;28;20604;-69
2023/11/16 14:20:58;;;;;;;3.95;2.75;;;;;;;;;;6331399;28;20052;-69
2023/11/16 14:24:03;;;;;;;5.88;3.13;;;;;;;;;;6333157;28;20623;-69
2023/11/16 14:27:12;;;;;;;6.15;2.45;;;;;;;;;;6331778;28;20047;-69
2023/11/16 14:30:14;;;;;;;7.03;3.03;;;;;;;;;;6325125;28;20094;-68
2023/11/16 14:33:19;;;;;;;5.72;1.48;;;;;;;;;;6335263;28;20055;-68
2023/11/16 14:36:21;;;;;;;5.47;4.55;;;;;;;;;;6335920;28;20429;-68
2023/11/16 14:39:24;;;;;;;3.40;2.05;;;;;;;;;;6334349;28;20116;-67
2023/11/16 14:42:26;;;;;;;4.72;2.90;;;;;;;;;;6329049;28;20135;-69
2023/11/16 14:45:28;;;;;;;6.03;3.30;;;;;;;;;;6328322;28;20454;-68
2023/11/16 14:48:31;;;;;;;7.60;6.47;;;;;;;;;;6327149;28;20710;-69
2023/11/16 14:51:33;;;;;;;5.53;3.33;;;;;;;;;;6298206;28;20048;-68
2023/11/16 14:54:35;;;;;;;5.35;2.65;;;;;;;;;;6325204;28;20055;-69
2023/11/16 14:57:42;;;;;;;5.15;2.97;;;;;;;;;;6327954;28;20044;-68
2023/11/16 15:00:44;;;;;;;6.25;4.18;;;;;;;;;;6328597;28;20051;-68
2023/11/16 15:03:47;;;;;;;6.47;4.60;;;;;;;;;;6333260;28;20518;-68
2023/11/16 15:06:51;;;;;;;4.55;3.53;;;;;;;;;;6328138;28;20514;-67
2023/11/16 15:09:53;;;;;;;2.97;1.77;;;;;;;;;;6331991;28;20032;-68
2023/11/16 15:12:55;;;;;;;4.70;2.70;;;;;;;;;;6324698;28;20051;-68
2023/11/16 15:15:57;;;;;;;6.00;4.07;;;;;;;;;;6334099;28;20047;-70
2023/11/16 15:18:59;;;;;;;7.85;4.93;;;;;;;;;;6316508;28;20513;-69
2023/11/16 15:22:02;;;;;;;5.82;4.57;;;;;;;;;;6347156;28;20081;-69
2023/11/16 15:25:04;;;;;;;5.45;4.32;;;;;;;;;;6355650;28;20062;-68
2023/11/16 15:28:07;;;;;;;5.70;5.07;;;;;;;;;;6319652;28;20051;-68
2023/11/16 15:31:09;;;;;;;8.00;4.13;;;;;;;;;;6334273;28;20051;-67
2023/11/16 15:34:12;;;;;;;17.10;7.88;;;;;;;;;;6325258;28;20716;-67
2023/11/16 15:37:16;;;;;;;17.65;8.93;;;;;;;;;;6332055;28;20387;-67
2023/11/16 15:40:18;;;;;;;12.82;7.38;;;;;;;;;;6331439;28;20819;-66
2023/11/16 15:43:21;;;;;;;7.20;4.68;;;;;;;;;;6334057;28;20820;-67
2023/11/16 15:46:24;;;;;;;9.15;5.50;;;;;;;;;;6337355;28;20058;-66
2023/11/16 15:49:27;;;;;;;8.73;5.00;;;;;;;;;;6334794;28;20046;-67
2023/11/16 15:52:30;;;;;;;10.48;5.35;;;;;;;;;;6334524;28;20051;-68
2023/11/16 15:55:32;;;;;;;8.45;5.43;;;;;;;;;;6326135;28;20097;-69
2023/11/16 15:58:37;;;;;;;9.43;6.05;;;;;;;;;;6325003;28;20043;-67
2023/11/16 16:01:39;;;;;;;14.07;8.43;;;;;;;;;;6334493;28;20043;-68
2023/11/16 16:04:41;;;;;;;11.77;5.30;;;;;;;;;;6332325;28;20055;-68
2023/11/16 16:07:43;;;;;;;11.43;6.70;;;;;;;;;;6335076;28;20043;-68
2023/11/16 16:10:46;;;;;;;6.20;4.00;;;;;;;;;;6320837;28;20043;-68
2023/11/16 16:13:51;;;;;;;5.72;4.57;;;;;;;;;;6320229;28;20181;-69
2023/11/16 16:16:53;;;;;;;6.00;3.63;;;;;;;;;;6336894;28;20051;-70
2023/11/16 16:19:55;;;;;;;5.60;3.85;;;;;;;;;;6336217;28;20062;-70
2023/11/16 16:22:57;;;;;;;7.50;3.63;;;;;;;;;;6325701;28;20180;-68
2023/11/16 16:25:59;;;;;;;8.23;6.78;;;;;;;;;;6336104;27;20047;-68
2023/11/16 16:29:03;;;;;;;12.55;7.53;;;;;;;;;;6335768;28;20036;-67
2023/11/16 16:32:08;;;;;;;7.55;5.07;;;;;;;;;;6336350;28;20051;-69
2023/11/16 16:35:10;;;;;;;31.42;16.88;;;;;;;;;;6337417;28;20055;-69
2023/11/16 16:38:12;;;;;;;26.95;17.27;;;;;;;;;;6336811;28;20040;-69
2023/11/16 16:41:15;;;;;;;11.73;7.72;;;;;;;;;;6337284;28;20039;-69
2023/11/16 16:44:17;;;;;;;8.38;6.07;;;;;;;;;;6336477;28;20050;-69
2023/11/16 16:47:20;;;;;;;6.78;5.00;;;;;;;;;;6336905;28;20120;-68
2023/11/16 16:50:22;;;;;;;9.90;4.68;;;;;;;;;;6337005;28;20052;-68
2023/11/16 16:53:24;;;;;;;7.13;4.40;;;;;;;;;;6323503;28;20134;-69
2023/11/16 16:56:27;;;;;;;6.30;4.78;;;;;;;;;;6318963;28;20140;-69
2023/11/16 16:59:34;;;;;;;14.80;10.18;;;;;;;;;;6331700;28;20055;-69
2023/11/16 17:02:36;;;;;;;24.25;19.50;;;;;;;;;;6336824;28;20044;-69
2023/11/16 17:05:38;;;;;;;15.98;14.35;;;;;;;;;;6324701;28;20492;-69
2023/11/16 17:08:40;;;;;;;11.98;7.40;;;;;;;;;;6336695;28;20073;-69
2023/11/16 17:11:42;;;;;;;13.15;7.13;;;;;;;;;;6336371;28;20146;-69
2023/11/16 17:14:44;;;;;;;49.90;24.50;;;;;;;;;;6337457;27;20565;-69
2023/11/16 17:17:46;;;;;;;39.78;26.13;;;;;;;;;;6327313;28;20546;-69
2023/11/16 17:20:50;;;;;;;63.45;29.08;;;;;;;;;;6335183;28;20054;-68
2023/11/16 17:23:53;;;;;;;61.50;24.63;;;;;;;;;;6322722;28;20051;-68
2023/11/16 17:26:56;;;;;;;22.55;8.60;;;;;;;;;;6335773;28;20510;-68
2023/11/16 17:29:58;;;;;;;9.07;4.57;;;;;;;;;;6329011;28;20578;-69
2023/11/16 17:33:01;;;;;;;7.15;4.68;;;;;;;;;;6334137;28;20039;-70
2023/11/16 17:36:04;;;;;;;8.07;5.88;;;;;;;;;;6335068;28;20581;-69
2023/11/16 17:39:06;;;;;;;9.23;6.38;;;;;;;;;;6334785;28;20089;-68
2023/11/16 17:42:15;;;;;;;13.43;7.72;;;;;;;;;;6335546;28;20971;-69
2023/11/16 17:45:22;;;;;;;15.90;9.27;;;;;;;;;;6319190;28;20542;-69
2023/11/16 17:48:24;;;;;;;12.38;8.18;;;;;;;;;;6335209;28;20586;-69
2023/11/16 17:51:27;;;;;;;11.32;6.75;;;;;;;;;;6334849;28;20039;-69
2023/11/16 17:54:30;;;;;;;10.95;7.63;;;;;;;;;;6321049;28;20047;-69
2023/11/16 17:57:35;;;;;;;15.15;9.95;;;;;;;;;;6334474;28;20035;-69
2023/11/16 18:00:37;;;;;;;16.05;11.07;;;;;;;;;;6335251;28;20040;-69
2023/11/16 18:03:39;;;;;;;20.38;14.68;;;;;;;;;;6329150;28;20427;-69
2023/11/16 18:06:41;;;;;;;15.48;9.38;;;;;;;;;;6323365;28;20553;-69
2023/11/16 18:09:46;;;;;;;14.07;9.57;;;;;;;;;;6326005;28;20136;-70
2023/11/16 18:12:51;;;;;;;18.80;10.70;;;;;;;;;;6302703;28;20807;-70
2023/11/16 18:15:54;;;;;;;16.88;10.45;;;;;;;;;;6337337;27;20055;-69
2023/11/16 18:18:58;;;;;;;19.00;11.75;;;;;;;;;;6342431;28;20043;-68